sensor_id;sensor_type;location;lat;lon;timestamp;P1;durP1;ratioP1;P2;durP2;ratioP2
28427;SDS011;15662;49.128;8.520;2022-08-25T00:00:19;2.72;;;1.50;;
28427;SDS011;15662;49.128;8.520;2022-08-25T00:02:48;1.42;;;1.33;;
28427;SDS011;15662;49.128;8.520;2022-08-25T00:05:23;1.70;;;1.60;;
28427;SDS011;15662;49.128;8.520;2022-08-25T00:07:56;1.38;;;1.35;;
28427;SDS011;15662;49.128;8.520;2022-08-25T00:10:24;2.05;;;1.40;;
28427;SDS011;15662;49.128;8.520;2022-08-25T00:12:52;2.63;;;1.70;;
28427;SDS011;15662;49.128;8.520;2022-08-25T00:15:22;2.70;;;1.40;;
28427;SDS011;15662;49.128;8.520;2022-08-25T00:17:52;4.38;;;1.52;;
28427;SDS011;15662;49.128;8.520;2022-08-25T00:20:22;2.05;;;1.48;;
28427;SDS011;15662;49.128;8.520;2022-08-25T00:22:51;1.65;;;1.30;;
28427;SDS011;15662;49.128;8.520;2022-08-25T00:25:22;1.60;;;1.50;;
28427;SDS011;15662;49.128;8.520;2022-08-25T00:27:52;1.55;;;1.45;;
28427;SDS011;15662;49.128;8.520;2022-08-25T00:30:21;1.20;;;1.20;;
28427;SDS011;15662;49.128;8.520;2022-08-25T00:32:49;2.05;;;1.40;;
28427;SDS011;15662;49.128;8.520;2022-08-25T00:35:24;2.45;;;1.33;;
28427;SDS011;15662;49.128;8.520;2022-08-25T00:40:23;2.78;;;1.40;;
28427;SDS011;15662;49.128;8.520;2022-08-25T00:42:53;1.70;;;1.60;;
28427;SDS011;15662;49.128;8.520;2022-08-25T00:45:22;2.70;;;1.60;;
28427;SDS011;15662;49.128;8.520;2022-08-25T00:47:51;2.00;;;1.60;;
28427;SDS011;15662;49.128;8.520;2022-08-25T00:50:24;1.60;;;1.50;;
28427;SDS011;15662;49.128;8.520;2022-08-25T00:52:54;1.55;;;1.50;;
28427;SDS011;15662;49.128;8.520;2022-08-25T00:55:28;1.45;;;1.35;;
28427;SDS011;15662;49.128;8.520;2022-08-25T00:58:15;1.67;;;1.40;;
28427;SDS011;15662;49.128;8.520;2022-08-25T01:00:50;1.70;;;1.60;;
28427;SDS011;15662;49.128;8.520;2022-08-25T01:03:33;2.58;;;1.70;;
28427;SDS011;15662;49.128;8.520;2022-08-25T01:06:03;1.65;;;1.55;;
28427;SDS011;15662;49.128;8.520;2022-08-25T01:08:33;2.10;;;1.80;;
28427;SDS011;15662;49.128;8.520;2022-08-25T01:11:04;1.80;;;1.70;;
28427;SDS011;15662;49.128;8.520;2022-08-25T01:13:39;1.80;;;1.70;;
28427;SDS011;15662;49.128;8.520;2022-08-25T01:16:14;1.63;;;1.52;;
28427;SDS011;15662;49.128;8.520;2022-08-25T01:18:49;1.60;;;1.50;;
28427;SDS011;15662;49.128;8.520;2022-08-25T01:21:20;1.75;;;1.65;;
28427;SDS011;15662;49.128;8.520;2022-08-25T01:26:24;1.67;;;1.58;;
28427;SDS011;15662;49.128;8.520;2022-08-25T01:29:03;5.05;;;1.80;;
28427;SDS011;15662;49.128;8.520;2022-08-25T01:31:48;2.38;;;1.58;;
28427;SDS011;15662;49.128;8.520;2022-08-25T01:34:27;1.98;;;1.88;;
28427;SDS011;15662;49.128;8.520;2022-08-25T01:36:59;1.98;;;1.83;;
28427;SDS011;15662;49.128;8.520;2022-08-25T01:39:29;2.28;;;2.08;;
28427;SDS011;15662;49.128;8.520;2022-08-25T01:44:38;5.32;;;2.00;;
28427;SDS011;15662;49.128;8.520;2022-08-25T01:47:12;2.42;;;2.22;;
28427;SDS011;15662;49.128;8.520;2022-08-25T01:49:44;2.28;;;2.10;;
28427;SDS011;15662;49.128;8.520;2022-08-25T01:54:59;2.70;;;2.03;;
28427;SDS011;15662;49.128;8.520;2022-08-25T01:57:28;3.55;;;2.40;;
28427;SDS011;15662;49.128;8.520;2022-08-25T01:59:58;3.08;;;2.10;;
28427;SDS011;15662;49.128;8.520;2022-08-25T02:02:37;2.30;;;2.20;;
28427;SDS011;15662;49.128;8.520;2022-08-25T02:05:11;2.55;;;2.28;;
28427;SDS011;15662;49.128;8.520;2022-08-25T02:07:49;2.50;;;2.40;;
28427;SDS011;15662;49.128;8.520;2022-08-25T02:10:18;2.90;;;2.42;;
28427;SDS011;15662;49.128;8.520;2022-08-25T02:12:46;2.65;;;2.45;;
28427;SDS011;15662;49.128;8.520;2022-08-25T02:15:15;2.72;;;2.53;;
28427;SDS011;15662;49.128;8.520;2022-08-25T02:17:43;2.65;;;2.45;;
28427;SDS011;15662;49.128;8.520;2022-08-25T02:20:13;4.20;;;2.90;;
28427;SDS011;15662;49.128;8.520;2022-08-25T02:22:41;2.63;;;2.42;;
28427;SDS011;15662;49.128;8.520;2022-08-25T02:27:51;4.28;;;2.67;;
28427;SDS011;15662;49.128;8.520;2022-08-25T02:30:19;3.03;;;2.70;;
28427;SDS011;15662;49.128;8.520;2022-08-25T02:32:47;2.95;;;2.72;;
28427;SDS011;15662;49.128;8.520;2022-08-25T02:35:15;2.50;;;2.40;;
28427;SDS011;15662;49.128;8.520;2022-08-25T02:37:46;3.22;;;2.97;;
28427;SDS011;15662;49.128;8.520;2022-08-25T02:40:16;3.15;;;2.85;;
28427;SDS011;15662;49.128;8.520;2022-08-25T02:42:49;2.88;;;2.60;;
28427;SDS011;15662;49.128;8.520;2022-08-25T02:45:17;2.78;;;2.58;;
28427;SDS011;15662;49.128;8.520;2022-08-25T02:47:46;2.75;;;2.55;;
28427;SDS011;15662;49.128;8.520;2022-08-25T02:50:16;3.28;;;3.00;;
28427;SDS011;15662;49.128;8.520;2022-08-25T02:52:45;4.15;;;3.85;;
28427;SDS011;15662;49.128;8.520;2022-08-25T02:57:45;3.55;;;3.25;;
28427;SDS011;15662;49.128;8.520;2022-08-25T03:00:14;4.63;;;3.03;;
28427;SDS011;15662;49.128;8.520;2022-08-25T03:02:45;3.50;;;3.20;;
28427;SDS011;15662;49.128;8.520;2022-08-25T03:05:15;3.25;;;2.80;;
28427;SDS011;15662;49.128;8.520;2022-08-25T03:07:43;2.97;;;2.70;;
28427;SDS011;15662;49.128;8.520;2022-08-25T03:10:14;3.17;;;2.88;;
28427;SDS011;15662;49.128;8.520;2022-08-25T03:12:46;3.13;;;2.70;;
28427;SDS011;15662;49.128;8.520;2022-08-25T03:15:15;3.03;;;2.83;;
28427;SDS011;15662;49.128;8.520;2022-08-25T03:17:44;2.97;;;2.75;;
28427;SDS011;15662;49.128;8.520;2022-08-25T03:20:17;3.20;;;2.88;;
28427;SDS011;15662;49.128;8.520;2022-08-25T03:22:47;3.60;;;3.05;;
28427;SDS011;15662;49.128;8.520;2022-08-25T03:25:16;3.20;;;2.67;;
28427;SDS011;15662;49.128;8.520;2022-08-25T03:28:05;3.38;;;3.00;;
28427;SDS011;15662;49.128;8.520;2022-08-25T03:30:34;3.10;;;2.80;;
28427;SDS011;15662;49.128;8.520;2022-08-25T03:33:03;3.17;;;2.70;;
28427;SDS011;15662;49.128;8.520;2022-08-25T03:35:32;3.15;;;2.95;;
28427;SDS011;15662;49.128;8.520;2022-08-25T03:38:00;3.25;;;2.95;;
28427;SDS011;15662;49.128;8.520;2022-08-25T03:40:31;2.92;;;2.83;;
28427;SDS011;15662;49.128;8.520;2022-08-25T03:43:01;3.50;;;3.20;;
28427;SDS011;15662;49.128;8.520;2022-08-25T03:45:30;3.30;;;3.10;;
28427;SDS011;15662;49.128;8.520;2022-08-25T03:47:58;2.92;;;2.72;;
28427;SDS011;15662;49.128;8.520;2022-08-25T03:50:26;3.40;;;3.10;;
28427;SDS011;15662;49.128;8.520;2022-08-25T03:52:55;4.75;;;2.83;;
28427;SDS011;15662;49.128;8.520;2022-08-25T03:55:24;5.45;;;3.58;;
28427;SDS011;15662;49.128;8.520;2022-08-25T03:57:55;17.88;;;3.40;;
28427;SDS011;15662;49.128;8.520;2022-08-25T04:00:25;3.55;;;3.35;;
28427;SDS011;15662;49.128;8.520;2022-08-25T04:02:53;4.43;;;3.35;;
28427;SDS011;15662;49.128;8.520;2022-08-25T04:05:21;4.00;;;3.70;;
28427;SDS011;15662;49.128;8.520;2022-08-25T04:07:52;4.47;;;3.75;;
28427;SDS011;15662;49.128;8.520;2022-08-25T04:10:23;5.63;;;4.07;;
28427;SDS011;15662;49.128;8.520;2022-08-25T04:12:50;4.13;;;3.83;;
28427;SDS011;15662;49.128;8.520;2022-08-25T04:15:18;3.60;;;3.30;;
28427;SDS011;15662;49.128;8.520;2022-08-25T04:17:47;4.80;;;4.40;;
28427;SDS011;15662;49.128;8.520;2022-08-25T04:20:18;4.20;;;3.90;;
28427;SDS011;15662;49.128;8.520;2022-08-25T04:22:47;4.30;;;3.90;;
28427;SDS011;15662;49.128;8.520;2022-08-25T04:25:15;3.97;;;3.67;;
28427;SDS011;15662;49.128;8.520;2022-08-25T04:27:45;3.90;;;3.60;;
28427;SDS011;15662;49.128;8.520;2022-08-25T04:30:14;5.82;;;3.53;;
28427;SDS011;15662;49.128;8.520;2022-08-25T04:32:43;4.95;;;3.60;;
28427;SDS011;15662;49.128;8.520;2022-08-25T04:35:12;6.45;;;3.78;;
28427;SDS011;15662;49.128;8.520;2022-08-25T04:37:41;3.90;;;3.58;;
28427;SDS011;15662;49.128;8.520;2022-08-25T04:40:09;4.35;;;3.95;;
28427;SDS011;15662;49.128;8.520;2022-08-25T04:42:38;4.20;;;3.88;;
28427;SDS011;15662;49.128;8.520;2022-08-25T04:45:06;5.50;;;4.15;;
28427;SDS011;15662;49.128;8.520;2022-08-25T04:47:35;5.10;;;4.20;;
28427;SDS011;15662;49.128;8.520;2022-08-25T04:50:06;6.75;;;3.92;;
28427;SDS011;15662;49.128;8.520;2022-08-25T04:52:36;5.70;;;4.30;;
28427;SDS011;15662;49.128;8.520;2022-08-25T04:55:04;4.50;;;4.10;;
28427;SDS011;15662;49.128;8.520;2022-08-25T05:00:04;4.90;;;4.40;;
28427;SDS011;15662;49.128;8.520;2022-08-25T05:02:34;4.97;;;4.38;;
28427;SDS011;15662;49.128;8.520;2022-08-25T05:05:02;4.53;;;4.20;;
28427;SDS011;15662;49.128;8.520;2022-08-25T05:10:01;4.63;;;4.22;;
28427;SDS011;15662;49.128;8.520;2022-08-25T05:12:30;5.03;;;4.07;;
28427;SDS011;15662;49.128;8.520;2022-08-25T05:15:02;4.65;;;4.22;;
28427;SDS011;15662;49.128;8.520;2022-08-25T05:17:52;6.15;;;4.20;;
28427;SDS011;15662;49.128;8.520;2022-08-25T05:20:23;4.65;;;4.35;;
28427;SDS011;15662;49.128;8.520;2022-08-25T05:22:52;4.85;;;4.45;;
28427;SDS011;15662;49.128;8.520;2022-08-25T05:25:21;4.90;;;4.50;;
28427;SDS011;15662;49.128;8.520;2022-08-25T05:27:50;6.65;;;4.97;;
28427;SDS011;15662;49.128;8.520;2022-08-25T05:30:18;6.18;;;5.60;;
28427;SDS011;15662;49.128;8.520;2022-08-25T05:32:48;5.00;;;4.60;;
28427;SDS011;15662;49.128;8.520;2022-08-25T05:35:17;6.60;;;5.38;;
28427;SDS011;15662;49.128;8.520;2022-08-25T05:37:48;5.93;;;5.10;;
28427;SDS011;15662;49.128;8.520;2022-08-25T05:40:17;6.80;;;4.95;;
28427;SDS011;15662;49.128;8.520;2022-08-25T05:42:46;6.10;;;5.35;;
28427;SDS011;15662;49.128;8.520;2022-08-25T05:45:16;5.25;;;4.80;;
28427;SDS011;15662;49.128;8.520;2022-08-25T05:47:47;5.37;;;4.67;;
28427;SDS011;15662;49.128;8.520;2022-08-25T05:50:15;4.75;;;4.30;;
28427;SDS011;15662;49.128;8.520;2022-08-25T05:52:44;6.38;;;5.07;;
28427;SDS011;15662;49.128;8.520;2022-08-25T05:55:14;5.00;;;4.60;;
28427;SDS011;15662;49.128;8.520;2022-08-25T05:57:43;4.55;;;4.18;;
28427;SDS011;15662;49.128;8.520;2022-08-25T06:00:11;7.63;;;4.82;;
28427;SDS011;15662;49.128;8.520;2022-08-25T06:02:40;5.78;;;4.55;;
28427;SDS011;15662;49.128;8.520;2022-08-25T06:05:17;4.93;;;4.43;;
28427;SDS011;15662;49.128;8.520;2022-08-25T06:07:50;5.22;;;4.82;;
28427;SDS011;15662;49.128;8.520;2022-08-25T06:10:18;6.55;;;4.78;;
28427;SDS011;15662;49.128;8.520;2022-08-25T06:12:48;6.82;;;4.70;;
28427;SDS011;15662;49.128;8.520;2022-08-25T06:17:51;5.30;;;4.82;;
28427;SDS011;15662;49.128;8.520;2022-08-25T06:20:29;6.97;;;4.60;;
28427;SDS011;15662;49.128;8.520;2022-08-25T06:23:18;5.60;;;5.10;;
28427;SDS011;15662;49.128;8.520;2022-08-25T06:26:08;7.88;;;5.28;;
28427;SDS011;15662;49.128;8.520;2022-08-25T06:28:48;6.93;;;4.75;;
28427;SDS011;15662;49.128;8.520;2022-08-25T06:31:19;5.68;;;5.03;;
28427;SDS011;15662;49.128;8.520;2022-08-25T06:33:49;7.15;;;4.75;;
28427;SDS011;15662;49.128;8.520;2022-08-25T06:36:19;7.60;;;5.22;;
28427;SDS011;15662;49.128;8.520;2022-08-25T06:38:48;7.93;;;4.95;;
28427;SDS011;15662;49.128;8.520;2022-08-25T06:41:16;5.68;;;4.93;;
28427;SDS011;15662;49.128;8.520;2022-08-25T06:43:45;5.45;;;4.53;;
28427;SDS011;15662;49.128;8.520;2022-08-25T06:46:21;5.10;;;4.70;;
28427;SDS011;15662;49.128;8.520;2022-08-25T06:49:04;5.45;;;4.70;;
28427;SDS011;15662;49.128;8.520;2022-08-25T06:51:34;6.30;;;4.60;;
28427;SDS011;15662;49.128;8.520;2022-08-25T06:54:03;6.57;;;4.93;;
28427;SDS011;15662;49.128;8.520;2022-08-25T06:56:32;4.80;;;4.40;;
28427;SDS011;15662;49.128;8.520;2022-08-25T06:59:03;7.63;;;4.30;;
28427;SDS011;15662;49.128;8.520;2022-08-25T07:01:36;7.47;;;4.70;;
28427;SDS011;15662;49.128;8.520;2022-08-25T07:04:06;6.10;;;4.57;;
28427;SDS011;15662;49.128;8.520;2022-08-25T07:06:39;5.32;;;4.68;;
28427;SDS011;15662;49.128;8.520;2022-08-25T07:09:09;8.25;;;5.10;;
28427;SDS011;15662;49.128;8.520;2022-08-25T07:11:39;6.78;;;4.60;;
28427;SDS011;15662;49.128;8.520;2022-08-25T07:14:09;4.75;;;4.30;;
28427;SDS011;15662;49.128;8.520;2022-08-25T07:16:39;5.25;;;4.75;;
28427;SDS011;15662;49.128;8.520;2022-08-25T07:19:16;8.50;;;4.80;;
28427;SDS011;15662;49.128;8.520;2022-08-25T07:21:48;4.90;;;4.40;;
28427;SDS011;15662;49.128;8.520;2022-08-25T07:24:19;4.88;;;4.43;;
28427;SDS011;15662;49.128;8.520;2022-08-25T07:26:48;7.13;;;4.72;;
28427;SDS011;15662;49.128;8.520;2022-08-25T07:29:19;5.47;;;4.97;;
28427;SDS011;15662;49.128;8.520;2022-08-25T07:31:59;4.60;;;4.30;;
28427;SDS011;15662;49.128;8.520;2022-08-25T07:34:29;4.88;;;4.47;;
28427;SDS011;15662;49.128;8.520;2022-08-25T07:37:19;5.43;;;4.50;;
28427;SDS011;15662;49.128;8.520;2022-08-25T07:40:13;5.10;;;4.70;;
28427;SDS011;15662;49.128;8.520;2022-08-25T07:45:22;4.70;;;4.28;;
28427;SDS011;15662;49.128;8.520;2022-08-25T07:48:01;5.22;;;3.90;;
28427;SDS011;15662;49.128;8.520;2022-08-25T07:50:36;4.50;;;4.10;;
28427;SDS011;15662;49.128;8.520;2022-08-25T07:53:11;4.65;;;3.88;;
28427;SDS011;15662;49.128;8.520;2022-08-25T07:55:41;4.40;;;4.07;;
28427;SDS011;15662;49.128;8.520;2022-08-25T07:58:13;4.25;;;3.95;;
28427;SDS011;15662;49.128;8.520;2022-08-25T08:00:46;4.05;;;3.75;;
28427;SDS011;15662;49.128;8.520;2022-08-25T08:03:16;4.32;;;3.92;;
28427;SDS011;15662;49.128;8.520;2022-08-25T08:06:11;4.47;;;4.13;;
28427;SDS011;15662;49.128;8.520;2022-08-25T08:08:43;4.35;;;4.05;;
28427;SDS011;15662;49.128;8.520;2022-08-25T08:11:26;5.75;;;4.10;;
28427;SDS011;15662;49.128;8.520;2022-08-25T08:14:11;4.10;;;3.80;;
28427;SDS011;15662;49.128;8.520;2022-08-25T08:16:43;5.75;;;5.15;;
28427;SDS011;15662;49.128;8.520;2022-08-25T08:19:11;4.13;;;3.83;;
28427;SDS011;15662;49.128;8.520;2022-08-25T08:21:41;3.97;;;3.67;;
28427;SDS011;15662;49.128;8.520;2022-08-25T08:24:12;3.83;;;3.55;;
28427;SDS011;15662;49.128;8.520;2022-08-25T08:27:01;4.25;;;3.92;;
28427;SDS011;15662;49.128;8.520;2022-08-25T08:29:29;4.10;;;3.80;;
28427;SDS011;15662;49.128;8.520;2022-08-25T08:31:58;3.72;;;3.40;;
28427;SDS011;15662;49.128;8.520;2022-08-25T08:34:26;5.72;;;3.97;;
28427;SDS011;15662;49.128;8.520;2022-08-25T08:36:55;4.55;;;3.80;;
28427;SDS011;15662;49.128;8.520;2022-08-25T08:39:25;3.80;;;3.50;;
28427;SDS011;15662;49.128;8.520;2022-08-25T08:49:55;4.38;;;3.83;;
28427;SDS011;15662;49.128;8.520;2022-08-25T08:53:08;3.35;;;3.15;;
28427;SDS011;15662;49.128;8.520;2022-08-25T08:55:39;3.45;;;3.15;;
28427;SDS011;15662;49.128;8.520;2022-08-25T09:01:35;3.70;;;3.40;;
28427;SDS011;15662;49.128;8.520;2022-08-25T09:07:20;3.33;;;3.13;;
28427;SDS011;15662;49.128;8.520;2022-08-25T09:09:59;3.25;;;3.05;;
28427;SDS011;15662;49.128;8.520;2022-08-25T09:28:20;3.33;;;3.13;;
28427;SDS011;15662;49.128;8.520;2022-08-25T09:31:23;3.20;;;3.00;;
28427;SDS011;15662;49.128;8.520;2022-08-25T09:34:34;3.60;;;3.30;;
28427;SDS011;15662;49.128;8.520;2022-08-25T09:37:03;3.58;;;3.30;;
28427;SDS011;15662;49.128;8.520;2022-08-25T09:39:30;3.17;;;2.90;;
28427;SDS011;15662;49.128;8.520;2022-08-25T09:41:59;3.15;;;2.95;;
28427;SDS011;15662;49.128;8.520;2022-08-25T09:44:41;3.70;;;3.10;;
28427;SDS011;15662;49.128;8.520;2022-08-25T09:47:21;3.42;;;2.83;;
28427;SDS011;15662;49.128;8.520;2022-08-25T09:54:56;3.10;;;2.90;;
28427;SDS011;15662;49.128;8.520;2022-08-25T10:00:19;4.20;;;3.40;;
28427;SDS011;15662;49.128;8.520;2022-08-25T10:08:35;2.75;;;2.65;;
28427;SDS011;15662;49.128;8.520;2022-08-25T10:11:13;3.10;;;2.80;;
28427;SDS011;15662;49.128;8.520;2022-08-25T10:14:26;3.00;;;2.80;;
28427;SDS011;15662;49.128;8.520;2022-08-25T10:22:37;2.83;;;2.72;;
28427;SDS011;15662;49.128;8.520;2022-08-25T10:25:09;2.80;;;2.60;;
28427;SDS011;15662;49.128;8.520;2022-08-25T10:33:14;2.78;;;2.28;;
28427;SDS011;15662;49.128;8.520;2022-08-25T10:39:06;3.03;;;2.70;;
28427;SDS011;15662;49.128;8.520;2022-08-25T10:45:27;2.63;;;2.42;;
28427;SDS011;15662;49.128;8.520;2022-08-25T10:56:49;2.65;;;2.47;;
28427;SDS011;15662;49.128;8.520;2022-08-25T11:06:13;2.97;;;2.78;;
28427;SDS011;15662;49.128;8.520;2022-08-25T11:08:54;2.70;;;2.50;;
28427;SDS011;15662;49.128;8.520;2022-08-25T11:11:33;2.83;;;2.63;;
28427;SDS011;15662;49.128;8.520;2022-08-25T11:17:33;2.75;;;2.65;;
28427;SDS011;15662;49.128;8.520;2022-08-25T11:20:10;2.70;;;2.50;;
28427;SDS011;15662;49.128;8.520;2022-08-25T11:23:07;2.72;;;2.53;;
28427;SDS011;15662;49.128;8.520;2022-08-25T11:25:48;2.58;;;2.42;;
28427;SDS011;15662;49.128;8.520;2022-08-25T11:31:45;2.83;;;2.63;;
28427;SDS011;15662;49.128;8.520;2022-08-25T11:34:20;3.42;;;3.22;;
28427;SDS011;15662;49.128;8.520;2022-08-25T11:51:26;3.57;;;2.80;;
28427;SDS011;15662;49.128;8.520;2022-08-25T11:56:54;2.53;;;2.42;;
28427;SDS011;15662;49.128;8.520;2022-08-25T12:11:13;3.35;;;3.15;;
28427;SDS011;15662;49.128;8.520;2022-08-25T12:21:49;3.00;;;2.80;;
28427;SDS011;15662;49.128;8.520;2022-08-25T12:27:39;3.05;;;2.88;;
28427;SDS011;15662;49.128;8.520;2022-08-25T12:30:18;3.38;;;3.17;;
28427;SDS011;15662;49.128;8.520;2022-08-25T12:35:59;2.95;;;2.75;;
28427;SDS011;15662;49.128;8.520;2022-08-25T12:38:45;3.00;;;2.80;;
28427;SDS011;15662;49.128;8.520;2022-08-25T12:41:25;2.88;;;2.67;;
28427;SDS011;15662;49.128;8.520;2022-08-25T12:49:53;2.72;;;2.55;;
28427;SDS011;15662;49.128;8.520;2022-08-25T12:56:18;2.97;;;2.80;;
28427;SDS011;15662;49.128;8.520;2022-08-25T12:59:15;3.17;;;2.97;;
28427;SDS011;15662;49.128;8.520;2022-08-25T13:10:54;4.00;;;3.70;;
28427;SDS011;15662;49.128;8.520;2022-08-25T13:17:11;2.72;;;2.53;;
28427;SDS011;15662;49.128;8.520;2022-08-25T13:20:22;4.15;;;3.28;;
28427;SDS011;15662;49.128;8.520;2022-08-25T13:22:58;16.08;;;10.15;;
28427;SDS011;15662;49.128;8.520;2022-08-25T13:25:30;4.25;;;3.65;;
28427;SDS011;15662;49.128;8.520;2022-08-25T13:28:03;3.25;;;2.95;;
28427;SDS011;15662;49.128;8.520;2022-08-25T13:30:38;5.68;;;3.13;;
28427;SDS011;15662;49.128;8.520;2022-08-25T13:33:17;2.58;;;2.47;;
28427;SDS011;15662;49.128;8.520;2022-08-25T13:35:50;2.53;;;2.40;;
28427;SDS011;15662;49.128;8.520;2022-08-25T13:38:41;2.55;;;2.35;;
28427;SDS011;15662;49.128;8.520;2022-08-25T13:41:16;2.88;;;2.78;;
28427;SDS011;15662;49.128;8.520;2022-08-25T13:43:55;2.85;;;2.67;;
28427;SDS011;15662;49.128;8.520;2022-08-25T13:46:28;11.50;;;7.57;;
28427;SDS011;15662;49.128;8.520;2022-08-25T13:49:02;23.80;;;14.23;;
28427;SDS011;15662;49.128;8.520;2022-08-25T13:51:38;13.68;;;8.20;;
28427;SDS011;15662;49.128;8.520;2022-08-25T13:54:26;3.55;;;3.25;;
28427;SDS011;15662;49.128;8.520;2022-08-25T13:57:13;5.90;;;2.40;;
28427;SDS011;15662;49.128;8.520;2022-08-25T13:59:53;11.35;;;7.32;;
28427;SDS011;15662;49.128;8.520;2022-08-25T14:02:48;4.97;;;3.95;;
28427;SDS011;15662;49.128;8.520;2022-08-25T14:05:38;3.88;;;3.30;;
28427;SDS011;15662;49.128;8.520;2022-08-25T14:08:26;2.70;;;2.50;;
28427;SDS011;15662;49.128;8.520;2022-08-25T14:13:42;2.35;;;2.25;;
28427;SDS011;15662;49.128;8.520;2022-08-25T14:16:13;2.15;;;2.05;;
28427;SDS011;15662;49.128;8.520;2022-08-25T14:18:51;2.17;;;2.00;;
28427;SDS011;15662;49.128;8.520;2022-08-25T14:21:27;2.90;;;2.33;;
28427;SDS011;15662;49.128;8.520;2022-08-25T14:24:01;2.28;;;2.17;;
28427;SDS011;15662;49.128;8.520;2022-08-25T14:26:36;2.60;;;2.40;;
28427;SDS011;15662;49.128;8.520;2022-08-25T14:29:20;2.50;;;2.40;;
28427;SDS011;15662;49.128;8.520;2022-08-25T14:31:50;3.90;;;2.40;;
28427;SDS011;15662;49.128;8.520;2022-08-25T14:34:27;2.50;;;2.30;;
28427;SDS011;15662;49.128;8.520;2022-08-25T14:37:01;2.50;;;2.30;;
28427;SDS011;15662;49.128;8.520;2022-08-25T14:42:11;7.10;;;4.65;;
28427;SDS011;15662;49.128;8.520;2022-08-25T14:44:39;7.07;;;3.33;;
28427;SDS011;15662;49.128;8.520;2022-08-25T14:47:08;5.25;;;2.45;;
28427;SDS011;15662;49.128;8.520;2022-08-25T14:49:37;2.10;;;2.00;;
28427;SDS011;15662;49.128;8.520;2022-08-25T14:52:19;2.45;;;2.17;;
28427;SDS011;15662;49.128;8.520;2022-08-25T14:54:55;2.17;;;2.00;;
28427;SDS011;15662;49.128;8.520;2022-08-25T14:57:24;2.10;;;2.00;;
28427;SDS011;15662;49.128;8.520;2022-08-25T14:59:53;2.20;;;2.10;;
28427;SDS011;15662;49.128;8.520;2022-08-25T15:02:21;2.35;;;2.15;;
28427;SDS011;15662;49.128;8.520;2022-08-25T15:05:00;2.67;;;2.47;;
28427;SDS011;15662;49.128;8.520;2022-08-25T15:07:32;2.70;;;2.50;;
28427;SDS011;15662;49.128;8.520;2022-08-25T15:10:21;2.20;;;2.05;;
28427;SDS011;15662;49.128;8.520;2022-08-25T15:12:50;2.22;;;2.03;;
28427;SDS011;15662;49.128;8.520;2022-08-25T15:15:21;2.10;;;2.00;;
28427;SDS011;15662;49.128;8.520;2022-08-25T15:17:52;2.03;;;1.92;;
28427;SDS011;15662;49.128;8.520;2022-08-25T15:20:26;2.30;;;2.20;;
28427;SDS011;15662;49.128;8.520;2022-08-25T15:22:55;2.10;;;2.00;;
28427;SDS011;15662;49.128;8.520;2022-08-25T15:25:24;2.30;;;2.10;;
28427;SDS011;15662;49.128;8.520;2022-08-25T15:27:53;2.47;;;2.00;;
28427;SDS011;15662;49.128;8.520;2022-08-25T15:30:22;2.03;;;1.92;;
28427;SDS011;15662;49.128;8.520;2022-08-25T15:32:57;2.47;;;2.28;;
28427;SDS011;15662;49.128;8.520;2022-08-25T15:35:27;2.30;;;2.20;;
28427;SDS011;15662;49.128;8.520;2022-08-25T15:37:55;2.50;;;2.13;;
28427;SDS011;15662;49.128;8.520;2022-08-25T15:40:23;2.50;;;2.40;;
28427;SDS011;15662;49.128;8.520;2022-08-25T15:42:52;2.28;;;2.10;;
28427;SDS011;15662;49.128;8.520;2022-08-25T15:45:22;2.65;;;2.28;;
28427;SDS011;15662;49.128;8.520;2022-08-25T15:47:50;5.90;;;1.98;;
28427;SDS011;15662;49.128;8.520;2022-08-25T15:50:20;2.23;;;2.03;;
28427;SDS011;15662;49.128;8.520;2022-08-25T15:52:52;2.67;;;2.10;;
28427;SDS011;15662;49.128;8.520;2022-08-25T15:55:21;2.00;;;1.90;;
28427;SDS011;15662;49.128;8.520;2022-08-25T15:57:49;2.15;;;2.05;;
28427;SDS011;15662;49.128;8.520;2022-08-25T16:00:18;2.10;;;2.00;;
28427;SDS011;15662;49.128;8.520;2022-08-25T16:02:47;1.90;;;1.80;;
28427;SDS011;15662;49.128;8.520;2022-08-25T16:05:16;4.32;;;2.17;;
28427;SDS011;15662;49.128;8.520;2022-08-25T16:07:52;1.90;;;1.80;;
28427;SDS011;15662;49.128;8.520;2022-08-25T16:10:20;2.20;;;2.10;;
28427;SDS011;15662;49.128;8.520;2022-08-25T16:12:48;1.77;;;1.67;;
28427;SDS011;15662;49.128;8.520;2022-08-25T16:15:17;2.30;;;1.77;;
28427;SDS011;15662;49.128;8.520;2022-08-25T16:17:54;2.03;;;1.90;;
28427;SDS011;15662;49.128;8.520;2022-08-25T16:20:27;1.90;;;1.80;;
28427;SDS011;15662;49.128;8.520;2022-08-25T16:22:59;1.95;;;1.85;;
28427;SDS011;15662;49.128;8.520;2022-08-25T16:28:02;1.88;;;1.77;;
28427;SDS011;15662;49.128;8.520;2022-08-25T16:30:30;1.90;;;1.80;;
28427;SDS011;15662;49.128;8.520;2022-08-25T16:32:58;1.85;;;1.75;;
28427;SDS011;15662;49.128;8.520;2022-08-25T16:35:27;1.90;;;1.80;;
28427;SDS011;15662;49.128;8.520;2022-08-25T16:37:55;1.90;;;1.80;;
28427;SDS011;15662;49.128;8.520;2022-08-25T16:40:23;2.67;;;2.00;;
28427;SDS011;15662;49.128;8.520;2022-08-25T16:42:53;1.92;;;1.83;;
28427;SDS011;15662;49.128;8.520;2022-08-25T16:45:22;2.13;;;1.90;;
28427;SDS011;15662;49.128;8.520;2022-08-25T16:47:52;2.13;;;1.98;;
28427;SDS011;15662;49.128;8.520;2022-08-25T16:50:21;1.85;;;1.75;;
28427;SDS011;15662;49.128;8.520;2022-08-25T16:52:50;2.30;;;1.63;;
28427;SDS011;15662;49.128;8.520;2022-08-25T16:55:37;1.92;;;1.83;;
28427;SDS011;15662;49.128;8.520;2022-08-25T16:58:06;2.08;;;1.90;;
28427;SDS011;15662;49.128;8.520;2022-08-25T17:00:39;1.75;;;1.65;;
28427;SDS011;15662;49.128;8.520;2022-08-25T17:03:10;1.95;;;1.85;;
28427;SDS011;15662;49.128;8.520;2022-08-25T17:05:41;1.75;;;1.65;;
28427;SDS011;15662;49.128;8.520;2022-08-25T17:08:09;1.70;;;1.70;;
28427;SDS011;15662;49.128;8.520;2022-08-25T17:13:40;2.00;;;1.90;;
28427;SDS011;15662;49.128;8.520;2022-08-25T17:16:12;1.85;;;1.70;;
28427;SDS011;15662;49.128;8.520;2022-08-25T17:18:41;1.48;;;1.48;;
28427;SDS011;15662;49.128;8.520;2022-08-25T17:21:14;1.98;;;1.88;;
28427;SDS011;15662;49.128;8.520;2022-08-25T17:23:53;3.45;;;1.63;;
28427;SDS011;15662;49.128;8.520;2022-08-25T17:26:23;3.22;;;1.88;;
28427;SDS011;15662;49.128;8.520;2022-08-25T17:28:58;1.75;;;1.65;;
28427;SDS011;15662;49.128;8.520;2022-08-25T17:31:28;2.22;;;2.05;;
28427;SDS011;15662;49.128;8.520;2022-08-25T17:33:57;1.90;;;1.80;;
28427;SDS011;15662;49.128;8.520;2022-08-25T17:36:27;2.05;;;1.95;;
28427;SDS011;15662;49.128;8.520;2022-08-25T17:38:55;2.47;;;1.90;;
28427;SDS011;15662;49.128;8.520;2022-08-25T17:41:25;2.10;;;2.00;;
28427;SDS011;15662;49.128;8.520;2022-08-25T17:43:54;1.98;;;1.88;;
28427;SDS011;15662;49.128;8.520;2022-08-25T17:46:22;2.17;;;2.08;;
28427;SDS011;15662;49.128;8.520;2022-08-25T17:48:50;2.45;;;1.98;;
28427;SDS011;15662;49.128;8.520;2022-08-25T17:51:21;4.22;;;2.53;;
28427;SDS011;15662;49.128;8.520;2022-08-25T17:53:49;3.30;;;1.90;;
28427;SDS011;15662;49.128;8.520;2022-08-25T17:56:20;2.00;;;1.90;;
28427;SDS011;15662;49.128;8.520;2022-08-25T17:58:53;2.50;;;2.30;;
28427;SDS011;15662;49.128;8.520;2022-08-25T18:01:28;2.33;;;2.22;;
28427;SDS011;15662;49.128;8.520;2022-08-25T18:04:08;2.10;;;2.00;;
28427;SDS011;15662;49.128;8.520;2022-08-25T18:06:45;2.10;;;2.00;;
28427;SDS011;15662;49.128;8.520;2022-08-25T18:09:14;2.00;;;1.90;;
28427;SDS011;15662;49.128;8.520;2022-08-25T18:11:44;2.10;;;2.00;;
28427;SDS011;15662;49.128;8.520;2022-08-25T18:14:12;1.98;;;1.88;;
28427;SDS011;15662;49.128;8.520;2022-08-25T18:16:43;2.35;;;2.10;;
28427;SDS011;15662;49.128;8.520;2022-08-25T18:19:11;2.30;;;2.20;;
28427;SDS011;15662;49.128;8.520;2022-08-25T18:21:41;2.90;;;2.22;;
28427;SDS011;15662;49.128;8.520;2022-08-25T18:24:10;2.10;;;2.00;;
28427;SDS011;15662;49.128;8.520;2022-08-25T18:26:39;6.13;;;1.80;;
28427;SDS011;15662;49.128;8.520;2022-08-25T18:29:12;2.17;;;2.08;;